createdAt,value
2022-12-05T00:12:38.242Z,54.35
2022-12-05T00:19:26.514Z,54.63
2022-12-05T00:26:12.349Z,54.56
2022-12-05T00:32:58.089Z,54.55
2022-12-05T00:39:46.620Z,54.55
2022-12-05T00:46:35.119Z,54.43
2022-12-05T00:53:21.103Z,54.53
2022-12-05T01:00:11.469Z,54.59
2022-12-05T01:07:00.052Z,54.62
2022-12-05T01:13:46.284Z,54.50
2022-12-05T01:20:34.337Z,54.58
2022-12-05T01:27:19.907Z,54.56
2022-12-05T01:34:08.597Z,54.50
2022-12-05T01:41:05.005Z,54.62
2022-12-05T01:47:50.832Z,54.44
2022-12-05T01:54:38.837Z,54.36
2022-12-05T02:01:26.967Z,54.49
2022-12-05T02:08:14.699Z,54.44
2022-12-05T02:15:13.559Z,54.61
2022-12-05T02:22:50.405Z,54.92
2022-12-05T02:29:57.996Z,54.69
2022-12-05T02:36:48.950Z,54.63
2022-12-05T02:43:40.110Z,54.72
2022-12-05T02:50:35.534Z,54.71
2022-12-05T02:57:22.688Z,54.58
2022-12-05T03:04:09.886Z,54.51
2022-12-05T03:11:00.030Z,54.63
2022-12-05T03:17:54.435Z,54.55
2022-12-05T03:24:44.061Z,54.51
2022-12-05T03:31:43.501Z,54.61
2022-12-05T03:38:35.639Z,54.52
2022-12-05T04:06:14.022Z,54.74
2022-12-05T04:13:17.937Z,54.74
2022-12-05T04:20:21.043Z,54.72
2022-12-05T04:27:25.907Z,55.00
2022-12-05T04:34:15.749Z,54.87
2022-12-05T04:41:06.338Z,55.12
2022-12-05T04:47:58.718Z,55.00
2022-12-05T04:54:49.251Z,55.16
2022-12-05T05:01:40.613Z,55.32
2022-12-05T05:08:30.824Z,55.49
2022-12-05T05:15:16.403Z,55.31
2022-12-05T05:22:01.920Z,55.23
2022-12-05T05:28:50.544Z,55.35
2022-12-05T05:35:39.722Z,55.37
2022-12-05T05:42:25.300Z,55.22
2022-12-05T05:49:14.192Z,55.39
2022-12-05T05:55:59.699Z,55.20
2022-12-05T06:02:45.436Z,55.21
2022-12-05T06:09:33.514Z,55.27
2022-12-05T06:16:23.792Z,55.45
2022-12-05T06:23:09.298Z,55.35
2022-12-05T06:29:57.482Z,55.67
2022-12-05T06:36:43.086Z,55.60
2022-12-05T06:43:28.581Z,55.65
2022-12-05T06:50:16.639Z,55.80
2022-12-05T06:57:02.155Z,55.77
2022-12-05T07:03:48.914Z,55.70
2022-12-05T07:10:37.096Z,55.77
2022-12-05T07:17:23.503Z,55.51
2022-12-05T07:24:09.597Z,55.67
2022-12-05T07:31:06.536Z,55.73
2022-12-05T07:37:51.962Z,55.56
2022-12-05T07:44:37.648Z,55.74
2022-12-05T07:51:25.649Z,55.81
2022-12-05T07:58:11.077Z,55.75
2022-12-05T08:04:56.435Z,55.51
2022-12-05T08:11:48.292Z,55.71
2022-12-05T08:18:36.700Z,55.74
2022-12-05T08:25:22.242Z,55.60
2022-12-05T08:32:10.269Z,55.71
2022-12-05T08:39:00.400Z,55.84
2022-12-05T08:45:53.643Z,55.85
2022-12-05T08:52:41.652Z,55.71
2022-12-05T08:59:27.104Z,55.73
2022-12-05T09:06:15.790Z,55.70
2022-12-05T09:13:03.877Z,55.60
2022-12-05T09:19:49.499Z,55.60
2022-12-05T09:26:34.992Z,55.62
2022-12-05T09:33:23.200Z,55.60
2022-12-05T09:40:12.984Z,55.62
2022-12-05T09:47:02.831Z,55.65
2022-12-05T09:53:51.123Z,55.62
2022-12-05T10:00:37.472Z,55.73
2022-12-05T10:07:30.273Z,55.66
2022-12-05T10:14:34.171Z,55.85
2022-12-05T10:21:25.860Z,55.67
2022-12-05T10:28:26.753Z,55.69
2022-12-05T10:35:24.251Z,56.04
2022-12-05T10:42:12.603Z,55.99
2022-12-05T10:48:58.517Z,55.99
2022-12-05T10:56:28.140Z,56.09
2022-12-05T11:02:56.545Z,56.27
2022-12-05T11:09:42.484Z,56.35
2022-12-05T11:16:35.568Z,56.64
2022-12-05T11:23:29.918Z,56.84
2022-12-05T11:30:23.005Z,57.07
2022-12-05T11:37:17.721Z,57.21
2022-12-05T11:44:39.833Z,57.25
2022-12-05T11:51:40.468Z,57.23
2022-12-05T11:58:59.713Z,57.32
2022-12-05T12:05:57.519Z,57.12
2022-12-05T12:12:58.362Z,57.36
2022-12-05T12:20:10.571Z,57.45
2022-12-05T12:27:08.547Z,57.38
2022-12-05T12:34:02.465Z,57.39
2022-12-05T12:40:54.356Z,57.46
2022-12-05T12:47:53.870Z,57.44
2022-12-05T12:55:04.310Z,57.66
2022-12-05T13:01:58.712Z,57.48
2022-12-05T13:08:51.683Z,57.41
2022-12-05T13:15:41.688Z,57.37
2022-12-05T13:22:32.138Z,57.43
2022-12-05T13:29:25.397Z,57.36
2022-12-05T13:36:27.688Z,57.26
2022-12-05T13:43:19.330Z,57.29
2022-12-05T13:50:13.268Z,57.20
2022-12-05T13:57:02.758Z,57.10
2022-12-05T14:04:03.599Z,57.24
2022-12-05T14:11:14.155Z,57.29
2022-12-05T14:18:08.279Z,57.10
2022-12-05T14:25:06.729Z,57.13
2022-12-05T14:32:13.835Z,57.16
2022-12-05T14:38:59.500Z,56.87
2022-12-05T14:46:02.339Z,57.02
2022-12-05T14:52:48.770Z,56.99
2022-12-05T14:59:42.172Z,56.99
2022-12-05T15:06:30.669Z,56.93
2022-12-05T15:13:20.571Z,56.78
2022-12-05T15:20:11.401Z,56.79
2022-12-05T15:27:01.710Z,56.97
2022-12-05T15:33:54.861Z,57.04
2022-12-05T15:40:40.659Z,56.79
2022-12-05T15:47:29.845Z,57.05
2022-12-05T15:54:22.616Z,56.53
2022-12-05T16:01:19.199Z,56.45
2022-12-05T16:08:08.710Z,56.66
2022-12-05T16:15:00.075Z,56.66
2022-12-05T16:21:50.909Z,56.22
2022-12-05T16:28:39.260Z,56.21
2022-12-05T16:35:42.578Z,56.33
2022-12-05T16:42:29.596Z,56.09
2022-12-05T16:49:46.382Z,55.75
2022-12-05T16:56:34.961Z,56.28
2022-12-05T17:03:36.456Z,56.30
2022-12-05T17:10:25.808Z,56.38
2022-12-05T17:17:18.105Z,56.27
2022-12-05T17:24:04.268Z,56.18
2022-12-05T17:30:52.823Z,56.13
2022-12-05T17:37:38.300Z,56.18
2022-12-05T17:44:23.703Z,56.07
2022-12-05T17:51:14.596Z,55.86
2022-12-05T17:58:00.263Z,55.91
2022-12-05T18:04:45.922Z,55.97
2022-12-05T18:11:34.059Z,56.16
2022-12-05T18:18:21.611Z,55.97
2022-12-05T18:25:08.788Z,55.96
2022-12-05T18:31:56.937Z,55.86
2022-12-05T18:38:43.387Z,55.60
2022-12-05T18:45:29.070Z,55.58
2022-12-05T18:52:17.156Z,55.52
2022-12-05T18:59:05.598Z,55.70
2022-12-05T19:05:50.968Z,55.42
2022-12-05T19:12:39.338Z,55.46
2022-12-05T19:19:25.698Z,55.41
2022-12-05T19:26:13.400Z,55.33
2022-12-05T19:33:01.985Z,55.49
2022-12-05T19:39:48.133Z,55.29
2022-12-05T19:46:34.598Z,55.34
2022-12-05T19:53:22.580Z,55.37
2022-12-05T20:00:11.491Z,55.38
2022-12-05T20:06:59.929Z,55.25
2022-12-05T20:13:48.801Z,55.46
2022-12-05T20:20:34.245Z,55.33
2022-12-05T20:27:19.674Z,55.30
2022-12-05T20:34:08.420Z,55.33
2022-12-05T20:40:53.877Z,55.17
2022-12-05T20:47:39.516Z,55.08
2022-12-05T20:54:27.794Z,55.20
2022-12-05T21:01:16.372Z,55.06
2022-12-05T21:08:01.917Z,55.12
2022-12-05T21:14:50.791Z,55.20
2022-12-05T21:21:36.318Z,55.13
2022-12-05T21:28:21.906Z,55.29
2022-12-05T21:35:11.413Z,55.32
2022-12-05T21:41:58.204Z,55.46
2022-12-05T21:48:43.577Z,55.44
2022-12-05T21:55:31.478Z,55.63
2022-12-05T22:02:17.069Z,55.49
2022-12-05T22:09:02.795Z,55.54
2022-12-05T22:15:51.274Z,55.55
2022-12-05T22:22:38.955Z,55.44
2022-12-05T22:29:24.378Z,55.62
2022-12-05T22:36:15.166Z,55.57
2022-12-05T22:43:00.575Z,55.60
2022-12-05T22:49:46.250Z,55.42
2022-12-05T22:56:34.743Z,55.53
2022-12-05T23:03:20.288Z,55.33
2022-12-05T23:10:07.203Z,55.35
2022-12-05T23:16:55.057Z,54.75
2022-12-05T23:23:40.902Z,55.32
2022-12-05T23:30:26.375Z,55.27
2022-12-05T23:37:14.364Z,55.52
2022-12-05T23:44:02.024Z,55.49
2022-12-05T23:50:47.376Z,55.58
2022-12-05T23:57:35.681Z,55.69
